Terminal Aerodrome Forecast
Issued by NWS Buffalo, NY

Home | Current Version | Previous Version | Text Only | Print | Product List | Glossary On
Versions: 1 2 3 4 5 6 7 8 9 10 11 12 13 14 15 16 17 18 19 20 21 22 23 24 25
000
FTUS41 KBUF 042336
TAFART
TAF
KART 042336Z 0500/0524 07005KT P6SM BKN200
     FM050600 12006KT P6SM OVC070
     FM050700 11007KT 2SM -SN OVC035
     FM051000 12008KT 1/2SM SN OVC015
     FM051400 17009KT 2SM -SN OVC012
     FM051700 24009KT P6SM VCSH OVC012
     FM051800 26009KT P6SM BKN012=

USA.gov is the U.S. government's official web portal to all federal, state and local government web resources and services.